Time;durP1;ratioP1;P1;durP2;ratioP2;P2;SDS_P1;SDS_P2;PMS_P1;PMS_P2;Temp;Humidity;BMP_temperature;BMP_pressure;BME280_temperature;BME280_humidity;BME280_pressure;Samples;Min_cycle;Max_cycle;Signal;HPM_P1;HPM_P2
2021/09/21 00:46:50;;;;;;;2.50;1.38;;;8.40;99.90;;;;;;6149334;23;20033;-87
2021/09/21 00:49:20;;;;;;;4.20;1.88;;;8.50;99.90;;;;;;6103412;23;20013;-88
2021/09/21 00:51:48;;;;;;;3.08;1.58;;;8.40;99.90;;;;;;6151236;23;20020;-92
2021/09/21 00:54:15;;;;;;;2.95;1.40;;;8.50;99.90;;;;;;6100025;23;20434;-93
2021/09/21 00:56:48;;;;;;;2.78;1.70;;;8.30;99.90;;;;;;6124312;23;20006;-90
2021/09/21 00:59:17;;;;;;;3.55;1.65;;;8.20;99.90;;;;;;6122911;23;20340;-89
2021/09/21 01:01:45;;;;;;;3.40;1.60;;;8.30;99.90;;;;;;6100599;23;20006;-89
2021/09/21 01:04:11;;;;;;;4.07;1.92;;;8.30;99.90;;;;;;6123037;23;20033;-94
2021/09/21 01:06:39;;;;;;;3.03;1.83;;;8.30;99.90;;;;;;6121866;23;20037;-93
2021/09/21 01:09:14;;;;;;;5.57;2.05;;;8.30;99.90;;;;;;6120790;23;20009;-95
2021/09/21 01:11:40;;;;;;;3.83;1.85;;;8.30;99.90;;;;;;6120815;23;20006;-95
2021/09/21 01:14:05;;;;;;;5.07;2.17;;;8.30;99.90;;;;;;6095210;23;20017;-95
2021/09/21 01:16:31;;;;;;;3.90;2.08;;;8.20;99.90;;;;;;6117673;23;20009;-93
2021/09/21 01:18:57;;;;;;;5.32;3.20;;;8.10;99.90;;;;;;6092518;23;20001;-92
2021/09/21 01:21:23;;;;;;;5.53;3.22;;;8.10;99.90;;;;;;6092913;23;20006;-94
2021/09/21 01:23:51;;;;;;;10.40;4.80;;;8.10;99.90;;;;;;6091995;23;20465;-94
2021/09/21 01:26:22;;;;;;;6.13;3.90;;;8.10;99.90;;;;;;6116090;23;20028;-94
2021/09/21 01:28:49;;;;;;;5.80;3.42;;;8.20;99.90;;;;;;6115324;23;20006;-95
2021/09/21 01:31:15;;;;;;;4.85;3.53;;;8.20;99.90;;;;;;6115135;23;20030;-92
2021/09/21 01:33:46;;;;;;;6.30;4.15;;;8.30;99.90;;;;;;6115394;23;20029;-94
2021/09/21 01:36:16;;;;;;;;;;;8.20;99.90;;;;;;6115384;23;20014;-93
2021/09/21 01:38:42;;;;;;;4.65;2.70;;;8.20;99.90;;;;;;6091186;23;19945;-92
2021/09/21 01:41:07;;;;;;;4.63;3.10;;;8.10;99.90;;;;;;6091111;23;20041;-92
2021/09/21 01:43:33;;;;;;;5.93;3.85;;;8.10;99.90;;;;;;6090806;23;20010;-93
2021/09/21 01:45:58;;;;;;;7.57;3.65;;;8.00;99.90;;;;;;6091005;23;20010;-93
2021/09/21 01:48:24;;;;;;;6.88;4.03;;;8.00;99.90;;;;;;6090953;23;20013;-93
2021/09/21 01:51:02;;;;;;;6.55;4.03;;;8.00;99.90;;;;;;6091406;23;20006;-93
2021/09/21 01:53:46;;;;;;;6.07;3.88;;;7.90;99.90;;;;;;6115073;23;20423;-95
2021/09/21 01:58:56;;;;;;;6.55;3.95;;;7.80;99.90;;;;;;6115069;23;20025;-96
2021/09/21 02:01:26;;;;;;;7.13;3.90;;;7.90;99.90;;;;;;6086533;23;20006;-95
2021/09/21 02:03:57;;;;;;;7.28;3.83;;;7.80;99.90;;;;;;6090226;23;20010;-95
2021/09/21 02:06:33;;;;;;;4.82;3.35;;;7.60;99.90;;;;;;6114933;23;20041;-96
2021/09/21 02:08:59;;;;;;;6.22;3.42;;;7.60;99.90;;;;;;6104862;23;20017;-93
2021/09/21 02:11:24;;;;;;;6.40;3.78;;;7.50;99.90;;;;;;6118326;23;20013;-94
2021/09/21 02:13:56;;;;;;;5.50;3.63;;;7.40;99.90;;;;;;6093568;23;20005;-93
2021/09/21 02:16:22;;;;;;;6.72;3.58;;;7.40;99.90;;;;;;6118349;23;20502;-93
2021/09/21 02:18:48;;;;;;;4.88;2.88;;;7.40;99.90;;;;;;6118516;23;20012;-95
2021/09/21 02:21:13;;;;;;;6.25;3.78;;;7.40;99.90;;;;;;6094154;23;20029;-95
2021/09/21 02:23:39;;;;;;;6.03;3.22;;;7.40;99.90;;;;;;6094140;23;20010;-93
2021/09/21 02:26:05;;;;;;;3.85;2.47;;;7.50;99.90;;;;;;6093788;23;20033;-93
2021/09/21 02:28:30;;;;;;;5.75;2.83;;;7.50;99.90;;;;;;6093991;23;20057;-94
2021/09/21 02:30:56;;;;;;;5.22;2.65;;;7.60;99.90;;;;;;6118199;23;20006;-93
2021/09/21 02:33:21;;;;;;;5.10;3.03;;;7.60;99.90;;;;;;6094683;23;20077;-92
2021/09/21 02:35:47;;;;;;;6.15;3.00;;;7.50;99.90;;;;;;6095021;23;20006;-94
2021/09/21 02:38:13;;;;;;;3.45;2.10;;;7.40;99.90;;;;;;6094951;23;20061;-91
2021/09/21 02:40:38;;;;;;;4.53;2.63;;;7.40;99.90;;;;;;6095107;23;20012;-94
2021/09/21 02:43:04;;;;;;;4.95;2.53;;;7.30;99.90;;;;;;6093969;23;20016;-95
2021/09/21 02:45:30;;;;;;;5.38;2.88;;;7.30;99.90;;;;;;6121354;23;20327;-94
2021/09/21 02:47:55;;;;;;;4.15;2.60;;;7.50;99.90;;;;;;6148189;23;20445;-95
2021/09/21 02:50:21;;;;;;;4.95;2.53;;;7.60;99.90;;;;;;6148634;23;20002;-93
2021/09/21 02:52:47;;;;;;;7.18;3.15;;;7.60;99.90;;;;;;6124040;23;20016;-91
2021/09/21 02:55:13;;;;;;;3.78;2.50;;;7.60;99.90;;;;;;6148396;23;20001;-93
2021/09/21 02:57:39;;;;;;;4.00;2.60;;;7.50;99.90;;;;;;6148212;23;20013;-94
2021/09/21 03:00:08;;;;;;;5.00;2.72;;;7.50;99.90;;;;;;6148690;23;20056;-94
2021/09/21 03:02:35;;;;;;;4.07;2.10;;;7.50;99.90;;;;;;6149638;23;20431;-95
2021/09/21 03:08:12;;;;;;;3.53;2.22;;;7.50;99.90;;;;;;6124924;23;20017;-92
2021/09/21 03:10:51;;;;;;;3.78;2.28;;;7.40;99.90;;;;;;6149035;23;20037;-93
2021/09/21 03:18:29;;;;;;;4.20;2.67;;;7.40;99.90;;;;;;6150107;23;20047;-94
2021/09/21 03:20:55;;;;;;;4.35;2.45;;;7.40;99.90;;;;;;6149744;23;20009;-91
2021/09/21 03:23:23;;;;;;;6.53;2.80;;;7.30;99.90;;;;;;6150213;23;20006;-91
2021/09/21 03:25:49;;;;;;;4.10;2.70;;;7.40;99.90;;;;;;6151299;23;20013;-90
2021/09/21 03:28:18;;;;;;;4.43;2.45;;;7.40;99.90;;;;;;6150299;23;20020;-92
2021/09/21 03:30:44;;;;;;;4.50;2.78;;;7.20;99.90;;;;;;6151792;23;20002;-93
2021/09/21 03:33:10;;;;;;;5.38;3.05;;;7.20;99.90;;;;;;6127927;23;20010;-94
2021/09/21 03:38:13;;;;;;;5.63;2.65;;;7.20;99.90;;;;;;6207399;23;20016;-91
2021/09/21 03:40:44;;;;;;;5.43;2.97;;;7.10;99.90;;;;;;6182958;23;20009;-91
2021/09/21 03:43:10;;;;;;;5.70;3.33;;;7.20;99.90;;;;;;6208395;23;20053;-91
2021/09/21 03:45:42;;;;;;;4.28;3.00;;;7.10;99.90;;;;;;6181524;23;20009;-96
2021/09/21 03:48:08;;;;;;;3.88;2.67;;;7.10;99.90;;;;;;6181348;23;20020;-93
2021/09/21 03:50:35;;;;;;;4.95;3.15;;;7.10;99.90;;;;;;6181758;23;20005;-94
2021/09/21 03:53:03;;;;;;;5.72;3.05;;;7.00;99.90;;;;;;6155878;23;20040;-93
2021/09/21 03:55:31;;;;;;;4.57;2.85;;;7.00;99.90;;;;;;6180368;23;20065;-94
2021/09/21 03:57:58;;;;;;;5.20;3.05;;;7.20;99.90;;;;;;6155809;23;20009;-94
2021/09/21 04:00:24;;;;;;;5.75;3.15;;;7.10;99.90;;;;;;6154326;23;20001;-94
2021/09/21 04:02:50;;;;;;;4.13;2.67;;;7.00;99.90;;;;;;6153460;23;20033;-95
2021/09/21 04:05:18;;;;;;;8.95;3.08;;;7.00;99.90;;;;;;6178110;23;20005;-94
2021/09/21 04:07:48;;;;;;;4.88;3.30;;;6.90;99.90;;;;;;6153096;23;20009;-94
2021/09/21 04:10:14;;;;;;;5.07;3.58;;;6.90;99.90;;;;;;6151176;23;20065;-95
2021/09/21 04:12:40;;;;;;;4.55;2.65;;;6.90;99.90;;;;;;6197924;23;20009;-95
2021/09/21 04:15:06;;;;;;;6.65;2.50;;;6.80;99.90;;;;;;6169771;23;20048;-95
2021/09/21 04:17:32;;;;;;;5.32;3.50;;;6.80;99.90;;;;;;6158250;23;20009;-95
2021/09/21 04:19:58;;;;;;;6.20;3.90;;;6.80;99.90;;;;;;6174593;23;20032;-93
2021/09/21 04:22:24;;;;;;;6.40;3.92;;;6.80;99.90;;;;;;6150457;23;20009;-93
2021/09/21 04:24:49;;;;;;;5.07;3.28;;;6.80;99.90;;;;;;6174871;23;20016;-92
2021/09/21 04:27:15;;;;;;;4.95;3.15;;;6.80;99.90;;;;;;6174405;23;20021;-95
2021/09/21 04:29:41;;;;;;;5.30;2.80;;;6.70;99.90;;;;;;6174492;23;20101;-95
2021/09/21 04:32:07;;;;;;;5.07;3.15;;;6.80;99.90;;;;;;6149932;23;20072;-91
2021/09/21 04:34:32;;;;;;;5.07;2.78;;;6.90;99.90;;;;;;6148086;23;20009;-91
2021/09/21 04:36:59;;;;;;;5.70;3.47;;;6.90;99.90;;;;;;6174728;23;20024;-92
2021/09/21 04:39:25;;;;;;;6.03;3.30;;;6.90;99.90;;;;;;6175165;23;20009;-92
2021/09/21 04:41:51;;;;;;;4.57;2.72;;;6.90;99.90;;;;;;6175335;23;20009;-91
2021/09/21 04:44:37;;;;;;;5.75;3.05;;;6.90;99.90;;;;;;6175441;23;20005;-91
2021/09/21 04:47:04;;;;;;;4.65;2.80;;;7.00;99.90;;;;;;6090009;23;20017;-92
2021/09/21 04:49:30;;;;;;;5.07;3.28;;;7.00;99.90;;;;;;6113896;23;20074;-92
2021/09/21 04:51:56;;;;;;;5.20;3.13;;;7.20;99.90;;;;;;6114193;23;20102;-91
2021/09/21 04:54:22;;;;;;;6.57;4.03;;;7.20;99.90;;;;;;6090249;23;20057;-92
2021/09/21 04:56:48;;;;;;;5.25;4.22;;;7.10;99.90;;;;;;6114325;23;20005;-92
2021/09/21 04:59:14;;;;;;;5.53;3.60;;;7.30;99.90;;;;;;6090417;23;20014;-92
2021/09/21 05:01:40;;;;;;;6.82;3.90;;;7.30;99.90;;;;;;6114319;23;20054;-91
2021/09/21 05:04:05;;;;;;;4.68;3.13;;;7.30;99.90;;;;;;6113737;23;20016;-92
2021/09/21 05:06:31;;;;;;;8.13;4.40;;;7.30;99.90;;;;;;6113695;23;20017;-92
2021/09/21 05:08:57;;;;;;;5.28;3.67;;;7.30;99.90;;;;;;6114102;23;20006;-93
2021/09/21 05:11:22;;;;;;;6.88;3.55;;;7.40;99.90;;;;;;6113685;23;20486;-94
2021/09/21 05:13:48;;;;;;;6.95;4.60;;;7.40;99.90;;;;;;6114092;23;20010;-94
2021/09/21 05:16:14;;;;;;;8.93;4.70;;;7.40;99.90;;;;;;6090028;23;20037;-93
2021/09/21 05:18:40;;;;;;;5.85;3.72;;;7.40;99.90;;;;;;6113588;23;20002;-93
2021/09/21 05:21:14;;;;;;;6.65;3.88;;;7.60;99.90;;;;;;6114137;23;20017;-94
2021/09/21 05:23:40;;;;;;;6.38;3.35;;;7.60;99.90;;;;;;6108994;23;20005;-94
2021/09/21 05:26:05;;;;;;;5.22;3.10;;;7.70;99.90;;;;;;6174328;23;20024;-95
2021/09/21 05:28:31;;;;;;;6.95;3.58;;;7.70;99.90;;;;;;6148453;23;20005;-93
2021/09/21 05:30:59;;;;;;;5.78;3.78;;;7.70;99.90;;;;;;6175022;23;20015;-96
2021/09/21 05:36:08;;;;;;;6.38;3.58;;;7.90;99.90;;;;;;6053505;23;20038;-96
2021/09/21 05:38:34;;;;;;;6.53;3.95;;;8.00;99.90;;;;;;6026959;23;20043;-94
2021/09/21 05:41:00;;;;;;;9.80;4.13;;;8.00;99.90;;;;;;6025923;23;20451;-96
2021/09/21 05:43:25;;;;;;;6.13;3.88;;;8.00;99.90;;;;;;6027449;23;20014;-95
2021/09/21 05:45:51;;;;;;;7.60;4.75;;;8.10;99.90;;;;;;6027644;23;20060;-96
2021/09/21 05:48:17;;;;;;;6.28;3.88;;;8.20;99.90;;;;;;6027470;23;20070;-95
2021/09/21 05:50:44;;;;;;;7.03;4.43;;;8.20;99.90;;;;;;6030329;23;20088;-96
2021/09/21 05:53:11;;;;;;;6.38;4.70;;;8.20;99.90;;;;;;6033821;23;20022;-95
2021/09/21 05:55:39;;;;;;;5.95;4.03;;;8.20;99.90;;;;;;6036390;23;20003;-96
2021/09/21 05:58:05;;;;;;;8.13;4.38;;;8.40;99.90;;;;;;6031006;23;20007;-96
2021/09/21 06:00:32;;;;;;;5.78;4.43;;;8.40;99.90;;;;;;6052672;23;20007;-96
2021/09/21 06:02:58;;;;;;;9.70;4.32;;;8.50;99.90;;;;;;6028541;23;20012;-94
2021/09/21 06:05:25;;;;;;;5.97;4.20;;;8.60;99.90;;;;;;6055753;23;20033;-96
2021/09/21 06:07:51;;;;;;;7.43;4.50;;;8.70;99.90;;;;;;6029829;23;20015;-96
2021/09/21 06:10:20;;;;;;;6.90;4.78;;;8.70;99.90;;;;;;6029456;23;20098;-96
2021/09/21 06:12:46;;;;;;;6.78;5.07;;;8.70;99.90;;;;;;6029334;23;20007;-96
2021/09/21 06:15:16;;;;;;;6.47;3.80;;;8.80;99.90;;;;;;6028344;23;20014;-96
2021/09/21 06:17:43;;;;;;;9.02;4.68;;;8.80;99.90;;;;;;6052874;23;20073;-96
2021/09/21 06:20:10;;;;;;;6.85;4.20;;;8.90;99.90;;;;;;6030075;23;20011;-96
2021/09/21 06:22:37;;;;;;;8.60;4.25;;;8.90;99.90;;;;;;6031091;23;20012;-96
2021/09/21 06:25:05;;;;;;;6.50;4.18;;;9.00;99.90;;;;;;6032575;23;20094;-96
2021/09/21 06:27:31;;;;;;;6.68;4.05;;;9.20;99.90;;;;;;6031094;23;20090;-95
2021/09/21 06:29:57;;;;;;;7.70;4.25;;;9.20;99.90;;;;;;6031987;23;20011;-93
2021/09/21 06:32:23;;;;;;;7.78;4.47;;;9.20;99.90;;;;;;6054014;23;20475;-96
2021/09/21 06:34:49;;;;;;;7.40;4.43;;;9.30;99.90;;;;;;6037627;23;20019;-96
2021/09/21 06:37:15;;;;;;;7.78;5.60;;;9.30;99.90;;;;;;6036639;23;20023;-95
2021/09/21 06:39:41;;;;;;;7.55;4.63;;;9.40;99.90;;;;;;6059724;23;20003;-96
2021/09/21 06:42:08;;;;;;;7.80;5.00;;;9.50;99.90;;;;;;6083338;23;20043;-96
2021/09/21 06:44:34;;;;;;;8.45;5.82;;;9.60;99.90;;;;;;6060449;23;20014;-95
2021/09/21 06:47:03;;;;;;;9.98;5.10;;;9.70;99.90;;;;;;6083907;23;20106;-95
2021/09/21 06:49:30;;;;;;;8.02;5.20;;;9.70;99.90;;;;;;6061479;23;20018;-96
2021/09/21 06:51:57;;;;;;;7.82;5.00;;;9.70;99.90;;;;;;6084828;23;20011;-96
2021/09/21 06:54:24;;;;;;;8.20;5.35;;;9.80;99.90;;;;;;6059728;23;20063;-96
2021/09/21 06:56:51;;;;;;;6.95;4.78;;;9.80;99.90;;;;;;6044103;23;20011;-96
2021/09/21 06:59:26;;;;;;;8.88;5.35;;;9.90;99.90;;;;;;6068726;23;20022;-95
2021/09/21 07:01:58;;;;;;;7.70;4.93;;;10.00;99.90;;;;;;6091573;23;20017;-95
2021/09/21 07:04:25;;;;;;;;;;;10.20;99.90;;;;;;6064961;23;20007;-93
2021/09/21 07:06:51;;;;;;;6.22;3.40;;;10.20;99.90;;;;;;6111805;23;19913;-94
2021/09/21 07:09:17;;;;;;;6.15;3.83;;;10.30;99.90;;;;;;6084079;23;20017;-94
2021/09/21 07:11:43;;;;;;;8.40;4.50;;;10.40;99.90;;;;;;6059752;23;20054;-95
2021/09/21 07:14:10;;;;;;;7.00;4.93;;;10.40;99.90;;;;;;6082569;23;20011;-93
2021/09/21 07:16:36;;;;;;;7.38;4.68;;;10.60;99.90;;;;;;6060688;23;20017;-93
2021/09/21 07:19:05;;;;;;;6.63;5.13;;;10.50;99.90;;;;;;6060679;23;20011;-94
2021/09/21 07:21:31;;;;;;;9.50;5.25;;;10.50;99.90;;;;;;6061261;23;20041;-91
2021/09/21 07:24:05;;;;;;;7.07;5.05;;;10.60;99.90;;;;;;6083658;23;20011;-94
2021/09/21 07:26:40;;;;;;;9.57;5.28;;;10.70;99.90;;;;;;6086518;23;20042;-93
2021/09/21 07:29:06;;;;;;;9.00;5.07;;;10.70;99.90;;;;;;6058432;23;20032;-92
2021/09/21 07:31:32;;;;;;;7.80;5.05;;;10.80;99.90;;;;;;6058469;23;20449;-94
2021/09/21 07:33:57;;;;;;;8.88;5.50;;;10.80;99.90;;;;;;6058576;23;20014;-95
2021/09/21 07:36:29;;;;;;;7.85;5.35;;;10.90;99.90;;;;;;6061541;23;20043;-93
2021/09/21 07:39:05;;;;;;;9.15;5.22;;;11.00;99.90;;;;;;6086386;23;20034;-94
2021/09/21 07:41:33;;;;;;;8.57;5.18;;;11.10;99.90;;;;;;6081527;23;20015;-90
2021/09/21 07:43:59;;;;;;;8.07;5.63;;;11.30;99.90;;;;;;6080162;23;20455;-90
2021/09/21 07:46:39;;;;;;;9.88;5.78;;;11.40;99.90;;;;;;6056794;23;20027;-93
2021/09/21 07:49:15;;;;;;;7.38;4.55;;;11.50;99.90;;;;;;6080490;23;20381;-93
2021/09/21 07:52:06;;;;;;;6.45;4.40;;;11.70;99.90;;;;;;6081560;23;20344;-93
2021/09/21 07:54:46;;;;;;;7.78;4.47;;;11.80;99.90;;;;;;6056662;23;20026;-92
2021/09/21 07:57:27;;;;;;;6.65;4.88;;;11.90;99.90;;;;;;6081072;23;20146;-92
2021/09/21 07:59:58;;;;;;;7.95;4.97;;;12.00;99.90;;;;;;6057014;23;20075;-94
2021/09/21 08:02:27;;;;;;;7.85;5.22;;;12.00;99.90;;;;;;6081270;23;20008;-92
2021/09/21 08:04:55;;;;;;;9.35;4.55;;;12.00;99.90;;;;;;6057072;23;20018;-94
2021/09/21 08:07:37;;;;;;;;;;;12.20;99.90;;;;;;6081477;23;20102;-95
2021/09/21 08:10:16;;;;;;;6.78;4.05;;;12.30;99.90;;;;;;6102306;23;19909;-94
2021/09/21 08:12:48;;;;;;;7.80;5.22;;;12.40;99.90;;;;;;6033907;23;20014;-94
2021/09/21 08:15:30;;;;;;;6.32;4.50;;;12.50;99.90;;;;;;6056646;23;20508;-93
2021/09/21 08:18:08;;;;;;;7.72;5.30;;;12.50;99.90;;;;;;6056963;23;20010;-92
2021/09/21 08:20:43;;;;;;;10.43;6.03;;;12.60;99.90;;;;;;6057389;23;20038;-92
2021/09/21 08:24:28;;;;;;;;;;;;;;;;;;;;;
2021/09/21 08:31:20;;;;;;;11.32;6.18;;;12.40;99.90;;;;;;6121080;23;20025;-94
2021/09/21 11:58:28;;;;;;;1.40;0.35;;;18.60;99.90;;;;;;6140996;23;20033;-90
2021/09/21 12:00:57;;;;;;;0.77;0.30;;;18.50;99.90;;;;;;6110394;23;20058;-89
2021/09/21 12:03:25;;;;;;;2.45;0.63;;;18.50;99.90;;;;;;6104643;23;20005;-90
2021/09/21 12:18:28;;;;;;;5.93;0.90;;;17.40;99.90;;;;;;6091729;23;20291;-90
2021/09/21 12:21:16;;;;;;;1.95;0.50;;;17.30;99.90;;;;;;6132507;23;20052;-89
2021/09/21 12:23:45;;;;;;;2.35;0.50;;;17.50;99.90;;;;;;6168096;23;20010;-89
2021/09/21 12:26:13;;;;;;;2.42;0.40;;;17.60;99.90;;;;;;6143680;23;20022;-89
2021/09/21 12:28:47;;;;;;;1.98;0.50;;;17.60;99.90;;;;;;6144228;23;20020;-91
2021/09/21 12:31:20;;;;;;;1.30;0.50;;;17.50;99.90;;;;;;6169040;23;20014;-90
2021/09/21 12:33:47;;;;;;;2.38;0.40;;;17.40;99.90;;;;;;6144153;23;20006;-89
2021/09/21 12:36:26;;;;;;;3.10;0.50;;;17.40;99.90;;;;;;6144342;23;20304;-89
2021/09/21 12:39:03;;;;;;;2.97;0.45;;;17.60;99.90;;;;;;6119906;23;20010;-91
2021/09/21 12:41:35;;;;;;;2.97;0.50;;;17.50;99.90;;;;;;6144159;23;20009;-92
2021/09/21 12:44:06;;;;;;;1.75;0.57;;;17.40;99.90;;;;;;6143802;23;20010;-89
2021/09/21 12:46:32;;;;;;;1.65;0.60;;;17.30;99.90;;;;;;6138845;23;20022;-89
2021/09/21 12:48:59;;;;;;;3.08;0.60;;;17.50;99.90;;;;;;6144062;23;20064;-89
2021/09/21 12:51:37;;;;;;;1.30;0.38;;;17.70;99.90;;;;;;6168338;23;20032;-91
2021/09/21 12:54:05;;;;;;;1.88;0.40;;;17.60;99.90;;;;;;6143371;23;20009;-89
2021/09/21 12:56:32;;;;;;;3.20;0.60;;;17.50;99.90;;;;;;6143714;23;20014;-89
2021/09/21 12:59:53;;;;;;;1.00;0.30;;;18.00;99.90;;;;;;6143629;23;20005;-91
2021/09/21 13:02:52;;;;;;;2.22;0.40;;;18.30;99.90;;;;;;6102021;23;20017;-89
2021/09/21 13:05:19;;;;;;;1.98;0.50;;;18.00;99.90;;;;;;6108381;23;20011;-91
2021/09/21 13:07:45;;;;;;;1.23;0.40;;;18.10;99.90;;;;;;6108401;23;20014;-90
2021/09/21 13:10:11;;;;;;;1.65;0.43;;;18.30;99.90;;;;;;6108180;23;20050;-90
2021/09/21 13:12:48;;;;;;;1.13;0.38;;;18.30;99.90;;;;;;6108105;23;20006;-90
2021/09/21 13:15:14;;;;;;;1.42;0.40;;;17.80;99.90;;;;;;6108128;23;20042;-89
2021/09/21 13:17:39;;;;;;;1.13;0.32;;;17.80;99.90;;;;;;6108256;23;20010;-91
2021/09/21 13:20:06;;;;;;;1.58;0.30;;;17.90;99.90;;;;;;6107459;23;20018;-90
2021/09/21 13:22:54;;;;;;;2.35;0.30;;;18.30;99.90;;;;;;6084577;23;20169;-92
2021/09/21 13:25:33;;;;;;;3.28;0.60;;;18.30;99.90;;;;;;6109810;23;20157;-91
2021/09/21 13:28:03;;;;;;;1.77;0.60;;;17.70;99.90;;;;;;6109796;23;20014;-90
2021/09/21 13:33:20;;;;;;;1.83;0.52;;;17.90;99.90;;;;;;6161063;23;20040;-90
2021/09/21 13:35:48;;;;;;;1.95;0.50;;;17.80;99.90;;;;;;6117564;23;20010;-91
2021/09/21 13:38:15;;;;;;;2.83;0.50;;;17.90;99.90;;;;;;6143965;23;20030;-91
2021/09/21 13:40:41;;;;;;;2.58;0.90;;;18.10;99.90;;;;;;6143727;23;20028;-91
2021/09/21 13:43:09;;;;;;;2.50;0.65;;;17.60;99.90;;;;;;6143464;23;20096;-92
2021/09/21 13:45:35;;;;;;;4.72;0.75;;;17.70;99.90;;;;;;6143484;23;20013;-91
2021/09/21 13:48:01;;;;;;;2.22;0.55;;;17.80;99.90;;;;;;6119236;23;20506;-91
2021/09/21 13:50:30;;;;;;;2.78;0.60;;;17.70;99.90;;;;;;6119824;23;20005;-91
2021/09/21 13:52:55;;;;;;;3.25;1.02;;;17.60;99.90;;;;;;6119154;23;20060;-91
2021/09/21 13:55:22;;;;;;;2.78;0.57;;;17.70;99.90;;;;;;6143492;23;20009;-90
2021/09/21 13:57:48;;;;;;;2.17;0.50;;;17.70;99.90;;;;;;6119189;23;20159;-90
2021/09/21 14:00:20;;;;;;;3.10;0.70;;;18.00;99.90;;;;;;6118909;23;20016;-91
2021/09/21 14:02:49;;;;;;;2.03;0.75;;;17.60;99.90;;;;;;6143528;23;20013;-90
2021/09/21 14:05:15;;;;;;;2.65;0.90;;;17.60;99.90;;;;;;6118818;23;20006;-90
2021/09/21 14:07:43;;;;;;;1.75;0.60;;;17.60;99.90;;;;;;6119088;23;20020;-90
2021/09/21 14:10:10;;;;;;;2.17;0.60;;;17.50;99.90;;;;;;6143361;23;20009;-91
2021/09/21 14:12:36;;;;;;;1.50;0.50;;;17.60;99.90;;;;;;6119146;23;20438;-92
2021/09/21 14:15:05;;;;;;;2.38;0.50;;;17.60;99.90;;;;;;6142800;23;20033;-92
2021/09/21 14:17:36;;;;;;;2.53;0.50;;;17.70;99.90;;;;;;6119394;23;20285;-92
2021/09/21 14:20:04;;;;;;;2.60;0.50;;;17.90;99.90;;;;;;6143375;23;20019;-89
2021/09/21 14:22:30;;;;;;;2.15;0.60;;;17.60;99.90;;;;;;6118934;23;20020;-92
2021/09/21 14:24:56;;;;;;;2.40;0.60;;;17.60;99.90;;;;;;6118956;23;20093;-92
2021/09/21 14:27:24;;;;;;;2.67;0.85;;;17.50;99.90;;;;;;6119370;23;20078;-93
2021/09/21 14:29:58;;;;;;;2.08;0.60;;;17.60;99.90;;;;;;6119143;23;20014;-93
2021/09/21 14:32:25;;;;;;;4.95;1.55;;;17.60;99.90;;;;;;6118864;23;20014;-92
2021/09/21 14:34:52;;;;;;;3.38;0.60;;;17.60;99.90;;;;;;6118297;23;20037;-93
2021/09/21 14:37:18;;;;;;;1.58;0.60;;;17.40;99.90;;;;;;6136309;23;20013;-92
2021/09/21 14:39:44;;;;;;;2.10;0.80;;;17.50;99.90;;;;;;6117299;23;20063;-93
2021/09/21 14:42:13;;;;;;;1.40;0.45;;;17.50;99.90;;;;;;6114298;23;20010;-92
2021/09/21 14:44:45;;;;;;;2.92;0.60;;;17.70;99.90;;;;;;6125462;23;20057;-89
2021/09/21 14:47:18;;;;;;;1.73;0.70;;;17.80;99.90;;;;;;6115647;23;20054;-92
2021/09/21 14:49:44;;;;;;;2.88;0.52;;;17.80;99.90;;;;;;6117401;23;20006;-92
2021/09/21 14:52:10;;;;;;;2.15;0.40;;;17.80;99.90;;;;;;6114188;23;20010;-92
2021/09/21 14:54:36;;;;;;;3.88;0.80;;;17.90;99.90;;;;;;6124114;23;20017;-93
2021/09/21 14:57:02;;;;;;;2.60;0.98;;;17.80;99.90;;;;;;6143482;23;20454;-93
2021/09/21 14:59:28;;;;;;;3.60;1.00;;;17.70;99.90;;;;;;6119238;23;20075;-93
2021/09/21 15:01:53;;;;;;;2.03;0.85;;;17.60;99.90;;;;;;6119385;23;20044;-93
2021/09/21 15:04:19;;;;;;;5.03;0.88;;;17.60;99.90;;;;;;6120185;23;20020;-93
2021/09/21 15:06:45;;;;;;;3.13;0.82;;;17.50;99.90;;;;;;6118619;23;20028;-90
2021/09/21 15:09:11;;;;;;;2.47;0.75;;;17.50;99.90;;;;;;6118978;23;20080;-93
2021/09/21 15:11:37;;;;;;;3.28;0.60;;;17.60;99.90;;;;;;6143205;23;20016;-92
2021/09/21 15:14:04;;;;;;;2.17;0.90;;;17.70;99.90;;;;;;6142825;23;20005;-92
2021/09/21 15:16:30;;;;;;;1.27;0.45;;;17.60;99.90;;;;;;6142721;23;20021;-93
2021/09/21 15:18:58;;;;;;;2.30;0.77;;;17.60;99.90;;;;;;6145156;23;20010;-92
2021/09/21 15:21:24;;;;;;;2.10;0.77;;;17.60;99.90;;;;;;6120440;23;20009;-92
2021/09/21 15:23:51;;;;;;;2.13;0.70;;;17.60;99.90;;;;;;6117469;23;20048;-89
2021/09/21 15:26:18;;;;;;;1.80;0.60;;;17.50;99.90;;;;;;6141685;23;20124;-91
2021/09/21 15:28:43;;;;;;;2.42;0.60;;;17.40;99.90;;;;;;6143513;23;20443;-91
2021/09/21 15:31:09;;;;;;;3.90;0.90;;;17.40;99.90;;;;;;6143332;23;20022;-93
2021/09/21 15:33:35;;;;;;;2.30;0.50;;;17.30;99.90;;;;;;6144538;23;20044;-92
2021/09/21 15:36:01;;;;;;;1.73;0.60;;;17.20;99.90;;;;;;6144724;23;20430;-93
2021/09/21 15:38:28;;;;;;;2.35;0.50;;;17.20;99.90;;;;;;6143897;23;20005;-93
2021/09/21 15:40:53;;;;;;;2.83;1.10;;;17.20;99.90;;;;;;6139936;23;20017;-93
2021/09/21 15:43:31;;;;;;;2.55;0.70;;;17.20;99.90;;;;;;6139447;23;20170;-93
2021/09/21 15:46:08;;;;;;;4.90;0.60;;;17.20;99.90;;;;;;6124228;23;20076;-93
2021/09/21 15:48:41;;;;;;;2.92;0.50;;;17.20;99.90;;;;;;6121591;23;20021;-92
2021/09/21 15:51:16;;;;;;;3.17;0.40;;;17.30;99.90;;;;;;6128485;23;20013;-92
2021/09/21 15:53:52;;;;;;;2.33;0.43;;;17.30;99.90;;;;;;6169094;23;20021;-93
2021/09/21 15:56:18;;;;;;;3.65;0.50;;;17.30;99.90;;;;;;6143218;23;20005;-92
2021/09/21 15:58:47;;;;;;;1.50;0.47;;;17.20;99.90;;;;;;6143794;23;20009;-95
2021/09/21 16:01:13;;;;;;;1.67;0.40;;;17.10;99.90;;;;;;6122431;23;20028;-92
2021/09/21 16:03:39;;;;;;;1.77;0.50;;;17.10;99.90;;;;;;6147493;23;20241;-94
2021/09/21 16:06:06;;;;;;;1.50;0.50;;;17.00;99.90;;;;;;6119867;23;20037;-93
2021/09/21 16:08:31;;;;;;;1.40;0.40;;;17.00;99.90;;;;;;6149337;23;20068;-94
2021/09/21 16:10:58;;;;;;;2.20;0.60;;;17.00;99.90;;;;;;6143919;23;20010;-92
2021/09/21 16:13:24;;;;;;;1.98;0.63;;;16.90;99.90;;;;;;6120097;23;20017;-93
2021/09/21 16:15:52;;;;;;;1.67;0.50;;;16.90;99.90;;;;;;6148648;23;20029;-92
2021/09/21 16:18:18;;;;;;;2.33;0.77;;;16.90;99.90;;;;;;6143323;23;20009;-93
2021/09/21 16:20:46;;;;;;;1.73;0.70;;;16.80;99.90;;;;;;6147680;23;20058;-93
2021/09/21 16:23:12;;;;;;;2.50;0.60;;;16.80;99.90;;;;;;6118545;23;20029;-94
2021/09/21 16:25:38;;;;;;;1.48;0.55;;;16.80;99.90;;;;;;6123628;23;20071;-93
2021/09/21 16:28:07;;;;;;;1.88;0.70;;;16.80;99.90;;;;;;6111588;23;20076;-93
2021/09/21 16:30:41;;;;;;;2.15;1.02;;;16.70;99.90;;;;;;6112770;23;20006;-93
2021/09/21 16:33:12;;;;;;;2.83;0.60;;;16.70;99.90;;;;;;6113972;23;20062;-92
2021/09/21 16:35:39;;;;;;;2.47;0.50;;;16.70;99.90;;;;;;6136432;23;20045;-93
2021/09/21 16:38:08;;;;;;;1.55;0.50;;;16.60;99.90;;;;;;6111135;23;20010;-92
2021/09/21 16:40:43;;;;;;;3.47;0.50;;;16.60;99.90;;;;;;6106812;23;20010;-91
2021/09/21 16:43:12;;;;;;;1.67;0.43;;;16.50;99.90;;;;;;6113623;23;20013;-92
2021/09/21 16:45:39;;;;;;;2.65;0.50;;;16.50;99.90;;;;;;6109538;23;20455;-92
2021/09/21 16:48:06;;;;;;;1.70;0.70;;;16.40;99.90;;;;;;6112722;23;20104;-93
2021/09/21 16:50:33;;;;;;;2.08;0.43;;;16.30;99.90;;;;;;6113915;23;20010;-92
2021/09/21 16:52:59;;;;;;;1.42;0.40;;;16.30;99.90;;;;;;6114061;23;20010;-92
2021/09/21 16:55:25;;;;;;;1.90;0.50;;;16.20;99.90;;;;;;6138304;23;20010;-93
2021/09/21 16:57:54;;;;;;;1.20;0.40;;;16.00;99.90;;;;;;6142961;23;20077;-93
2021/09/21 17:00:23;;;;;;;1.63;0.40;;;16.00;99.90;;;;;;6169449;23;20056;-93
2021/09/21 17:02:50;;;;;;;2.20;0.30;;;15.90;99.90;;;;;;6142809;23;20013;-92
2021/09/21 17:05:23;;;;;;;1.10;0.30;;;15.80;99.90;;;;;;6142692;23;20035;-92
2021/09/21 17:07:49;;;;;;;1.60;0.50;;;15.70;99.90;;;;;;6142601;23;20390;-92
2021/09/21 17:10:16;;;;;;;1.80;0.50;;;15.70;99.90;;;;;;6143095;23;20005;-92
2021/09/21 17:12:42;;;;;;;1.33;0.38;;;15.50;99.90;;;;;;6118751;23;20033;-93
2021/09/21 17:15:08;;;;;;;2.25;0.40;;;15.40;99.90;;;;;;6142969;23;20006;-93
2021/09/21 17:17:34;;;;;;;2.80;0.30;;;15.20;99.90;;;;;;6119007;23;20013;-93
2021/09/21 17:19:59;;;;;;;1.55;0.47;;;15.20;99.90;;;;;;6143598;23;20056;-93
2021/09/21 17:22:25;;;;;;;1.52;0.43;;;15.00;99.90;;;;;;6143273;23;20014;-92
2021/09/21 17:24:54;;;;;;;1.30;0.40;;;14.90;99.90;;;;;;6130004;23;20024;-92
2021/09/21 17:27:19;;;;;;;1.20;0.45;;;14.80;99.90;;;;;;6144060;23;20017;-91
2021/09/21 17:29:45;;;;;;;2.78;0.50;;;14.70;99.90;;;;;;6143354;23;20002;-92
2021/09/21 17:32:11;;;;;;;1.80;0.43;;;14.60;99.90;;;;;;6144609;23;20013;-92
2021/09/21 17:34:36;;;;;;;1.42;0.50;;;14.50;99.90;;;;;;6168472;23;20009;-92
2021/09/21 17:37:04;;;;;;;2.90;0.35;;;14.50;99.90;;;;;;6161901;23;20017;-91
2021/09/21 17:39:30;;;;;;;2.00;0.50;;;14.30;99.90;;;;;;6144286;23;20013;-91
2021/09/21 17:41:56;;;;;;;1.83;0.40;;;14.30;99.90;;;;;;6144847;23;20005;-91
2021/09/21 17:44:41;;;;;;;1.25;0.52;;;14.20;99.90;;;;;;6168924;23;20422;-93
2021/09/21 17:47:07;;;;;;;1.55;0.50;;;14.10;99.90;;;;;;6138809;23;20021;-94